createdAt,value
2023-05-02T00:00:03.133Z,4.00
2023-05-02T00:03:09.074Z,4.00
2023-05-02T00:06:13.665Z,3.60
2023-05-02T00:09:17.872Z,2.60
2023-05-02T00:12:21.062Z,2.08
2023-05-02T00:15:25.038Z,2.78
2023-05-02T00:18:28.728Z,4.22
2023-05-02T00:21:33.813Z,3.97
2023-05-02T00:24:37.814Z,6.28
2023-05-02T00:27:41.680Z,4.65
2023-05-02T00:30:46.464Z,5.68
2023-05-02T00:33:50.758Z,5.05
2023-05-02T00:36:54.010Z,4.57
2023-05-02T00:39:58.215Z,5.65
2023-05-02T00:43:01.749Z,3.42
2023-05-02T00:46:06.440Z,1.98
2023-05-02T00:49:10.640Z,2.40
2023-05-02T00:52:14.688Z,1.15
2023-05-02T00:55:18.313Z,1.92
2023-05-02T00:58:22.547Z,3.80
2023-05-02T01:01:46.216Z,3.42
2023-05-02T01:05:17.738Z,2.20
2023-05-02T01:08:43.310Z,1.52
2023-05-02T01:12:07.548Z,0.80
2023-05-02T01:15:17.311Z,0.57
2023-05-02T01:18:26.170Z,0.98
2023-05-02T01:21:30.477Z,1.38
2023-05-02T01:24:43.061Z,0.77
2023-05-02T01:28:08.151Z,0.30
2023-05-02T01:31:12.952Z,0.50
2023-05-02T01:34:18.967Z,0.40
2023-05-02T01:37:24.437Z,0.65
2023-05-02T01:40:28.363Z,0.30
2023-05-02T01:43:35.707Z,0.30
2023-05-02T01:46:44.531Z,1.45
2023-05-02T01:49:48.564Z,2.53
2023-05-02T01:52:54.789Z,0.40
2023-05-02T01:56:00.326Z,0.32
2023-05-02T01:59:08.931Z,0.40
2023-05-02T02:02:15.412Z,0.40
2023-05-02T02:05:21.828Z,0.40
2023-05-02T02:08:26.605Z,0.70
2023-05-02T02:11:44.616Z,0.30
2023-05-02T02:14:57.011Z,0.60
2023-05-02T02:18:04.702Z,0.60
2023-05-02T02:21:11.224Z,0.60
2023-05-02T02:24:17.447Z,0.63
2023-05-02T02:27:22.196Z,0.57
2023-05-02T02:30:25.911Z,0.40
2023-05-02T02:33:32.379Z,0.40
2023-05-02T02:37:06.487Z,0.70
2023-05-02T02:40:31.520Z,0.82
2023-05-02T02:43:38.946Z,1.00
2023-05-02T02:46:59.269Z,0.50
2023-05-02T02:50:33.205Z,0.47
2023-05-02T02:54:26.565Z,0.60
2023-05-02T02:58:05.030Z,0.70
2023-05-02T03:01:13.076Z,0.60
2023-05-02T03:04:19.725Z,0.70
2023-05-02T03:10:28.439Z,0.50
2023-05-02T03:13:34.489Z,0.60
2023-05-02T03:16:40.233Z,0.80
2023-05-02T03:19:48.820Z,0.55
2023-05-02T03:22:54.122Z,0.60
2023-05-02T03:25:58.071Z,0.70
2023-05-02T03:29:02.840Z,1.00
2023-05-02T03:32:15.597Z,0.52
2023-05-02T03:38:37.690Z,0.60
2023-05-02T03:41:50.521Z,0.63
2023-05-02T03:44:58.552Z,0.55
2023-05-02T03:48:06.074Z,0.68
2023-05-02T03:51:14.906Z,0.55
2023-05-02T03:54:22.017Z,0.47
2023-05-02T03:57:31.669Z,0.60
2023-05-02T04:00:42.540Z,0.60
2023-05-02T04:03:46.889Z,0.70
2023-05-02T04:06:53.172Z,0.52
2023-05-02T04:09:57.434Z,0.47
2023-05-02T04:13:04.087Z,0.80
2023-05-02T04:19:14.853Z,0.70
2023-05-02T04:22:18.611Z,0.43
2023-05-02T04:25:29.149Z,0.60
2023-05-02T04:28:36.938Z,0.60
2023-05-02T04:31:41.541Z,0.70
2023-05-02T04:34:46.634Z,0.70
2023-05-02T04:37:51.825Z,0.60
2023-05-02T04:40:56.528Z,0.70
2023-05-02T04:44:20.700Z,0.93
2023-05-02T04:47:24.218Z,0.90
2023-05-02T04:50:29.878Z,0.70
2023-05-02T04:53:33.984Z,0.75
2023-05-02T04:56:38.332Z,0.57
2023-05-02T04:59:46.898Z,0.82
2023-05-02T05:02:51.837Z,0.52
2023-05-02T05:05:55.509Z,0.80
2023-05-02T05:09:01.567Z,0.90
2023-05-02T05:12:05.852Z,0.90
2023-05-02T05:15:12.799Z,0.98
2023-05-02T05:18:20.729Z,1.00
2023-05-02T05:21:24.858Z,0.68
2023-05-02T05:24:28.788Z,0.50
2023-05-02T05:27:35.640Z,0.60
2023-05-02T05:30:40.924Z,0.70
2023-05-02T05:33:47.924Z,0.80
2023-05-02T05:36:52.596Z,0.60
2023-05-02T05:39:56.850Z,1.02
2023-05-02T05:43:03.047Z,1.45
2023-05-02T05:49:16.489Z,1.00
2023-05-02T05:52:20.637Z,1.10
2023-05-02T05:55:27.674Z,0.80
2023-05-02T05:58:32.651Z,0.80
2023-05-02T06:01:37.308Z,1.10
2023-05-02T06:04:42.343Z,1.05
2023-05-02T06:07:47.658Z,0.70
2023-05-02T06:10:51.855Z,1.23
2023-05-02T06:13:55.705Z,0.80
2023-05-02T06:17:06.271Z,0.80
2023-05-02T06:20:22.784Z,0.80
2023-05-02T06:26:32.137Z,1.00
2023-05-02T06:29:35.997Z,0.60
2023-05-02T06:32:39.827Z,1.10
2023-05-02T06:35:43.851Z,0.70
2023-05-02T06:38:47.420Z,0.73
2023-05-02T06:41:51.180Z,0.80
2023-05-02T06:44:55.308Z,0.90
2023-05-02T06:47:58.430Z,0.60
2023-05-02T06:51:02.389Z,0.90
2023-05-02T06:54:06.990Z,0.80
2023-05-02T06:57:11.300Z,0.70
2023-05-02T07:00:15.333Z,0.70
2023-05-02T07:03:19.006Z,1.02
2023-05-02T07:06:22.422Z,0.85
2023-05-02T07:09:25.915Z,0.93
2023-05-02T07:12:29.553Z,0.70
2023-05-02T07:15:32.946Z,0.90
2023-05-02T07:18:37.188Z,1.20
2023-05-02T07:21:40.937Z,0.73
2023-05-02T07:24:44.658Z,0.70
2023-05-02T07:27:48.495Z,0.52
2023-05-02T07:30:51.739Z,0.50
2023-05-02T07:33:55.475Z,0.73
2023-05-02T07:36:59.461Z,0.98
2023-05-02T07:40:04.069Z,0.90
2023-05-02T07:43:09.816Z,1.17
2023-05-02T07:46:14.947Z,0.90
2023-05-02T07:49:18.850Z,1.10
2023-05-02T07:52:22.826Z,1.30
2023-05-02T07:55:31.459Z,1.30
2023-05-02T07:58:37.992Z,1.20
2023-05-02T08:01:42.704Z,1.70
2023-05-02T08:04:47.447Z,1.25
2023-05-02T08:07:51.521Z,1.73
2023-05-02T08:10:55.279Z,1.13
2023-05-02T08:13:59.468Z,0.95
2023-05-02T08:17:03.302Z,1.42
2023-05-02T08:20:07.251Z,1.20
2023-05-02T08:23:11.254Z,1.70
2023-05-02T08:26:15.828Z,2.15
2023-05-02T08:29:19.665Z,1.92
2023-05-02T08:32:23.506Z,1.40
2023-05-02T08:35:26.597Z,2.03
2023-05-02T08:38:31.502Z,1.95
2023-05-02T08:41:35.468Z,1.27
2023-05-02T08:44:40.100Z,1.85
2023-05-02T08:47:44.042Z,1.55
2023-05-02T08:50:50.633Z,1.50
2023-05-02T08:53:56.018Z,1.70
2023-05-02T08:57:00.987Z,2.20
2023-05-02T09:00:05.371Z,1.50
2023-05-02T09:03:18.035Z,1.65
2023-05-02T09:06:23.216Z,1.95
2023-05-02T09:09:28.043Z,1.83
2023-05-02T09:12:31.858Z,1.52
2023-05-02T09:15:35.339Z,2.00
2023-05-02T09:18:39.587Z,2.45
2023-05-02T09:21:44.316Z,2.00
2023-05-02T09:24:56.003Z,1.98
2023-05-02T09:28:02.219Z,1.85
2023-05-02T09:31:13.074Z,2.58
2023-05-02T09:34:18.356Z,2.08
2023-05-02T09:37:37.490Z,2.58
2023-05-02T09:40:56.355Z,2.30
2023-05-02T09:44:00.055Z,1.63
2023-05-02T09:47:04.805Z,2.00
2023-05-02T09:50:09.851Z,1.73
2023-05-02T09:53:13.214Z,2.45
2023-05-02T09:56:17.923Z,2.30
2023-05-02T09:59:21.868Z,2.40
2023-05-02T10:02:28.134Z,2.17
2023-05-02T10:05:32.037Z,2.42
2023-05-02T10:08:36.675Z,1.92
2023-05-02T10:11:42.969Z,2.60
2023-05-02T10:14:52.313Z,1.92
2023-05-02T10:17:56.913Z,2.22
2023-05-02T10:21:08.745Z,2.17
2023-05-02T10:24:13.528Z,2.20
2023-05-02T10:27:17.703Z,2.22
2023-05-02T10:30:21.669Z,2.03
2023-05-02T10:33:25.349Z,1.90
2023-05-02T10:36:30.583Z,2.08
2023-05-02T10:39:34.999Z,2.00
2023-05-02T10:42:53.849Z,2.88
2023-05-02T10:45:57.622Z,2.40
2023-05-02T10:49:07.501Z,2.83
2023-05-02T10:52:29.364Z,2.05
2023-05-02T10:55:32.473Z,2.60
2023-05-02T10:58:35.748Z,3.67
2023-05-02T11:01:40.333Z,2.78
2023-05-02T11:05:25.127Z,2.70
2023-05-02T11:08:28.778Z,2.58
2023-05-02T11:11:46.250Z,3.15
2023-05-02T11:14:50.355Z,3.00
2023-05-02T11:18:13.984Z,2.92
2023-05-02T11:21:30.246Z,3.47
2023-05-02T11:24:43.367Z,3.58
2023-05-02T11:27:49.826Z,3.47
2023-05-02T11:30:58.772Z,3.33
2023-05-02T11:34:05.707Z,3.20
2023-05-02T11:37:14.548Z,3.60
2023-05-02T11:40:18.475Z,3.63
2023-05-02T11:43:23.666Z,4.43
2023-05-02T11:46:27.011Z,3.03
2023-05-02T11:49:30.847Z,2.58
2023-05-02T11:52:42.161Z,2.20
2023-05-02T11:56:02.335Z,2.15
2023-05-02T11:59:05.852Z,2.22
2023-05-02T12:02:08.804Z,3.22
2023-05-02T12:05:16.329Z,2.85
2023-05-02T12:08:25.411Z,2.57
2023-05-02T12:11:28.424Z,2.25
2023-05-02T12:14:34.426Z,2.95
2023-05-02T12:21:10.279Z,2.20
2023-05-02T12:24:22.985Z,2.90
2023-05-02T12:27:28.397Z,2.67
2023-05-02T12:30:33.815Z,2.30
2023-05-02T12:33:44.426Z,2.55
2023-05-02T12:36:47.812Z,3.22
2023-05-02T12:39:51.364Z,3.55
2023-05-02T12:43:04.529Z,3.13
2023-05-02T12:46:12.192Z,2.38
2023-05-02T12:52:39.284Z,2.53
2023-05-02T12:55:43.399Z,1.90
2023-05-02T12:58:50.444Z,2.65
2023-05-02T13:01:54.237Z,2.25
2023-05-02T13:04:57.924Z,2.40
2023-05-02T13:08:01.709Z,2.53
2023-05-02T13:11:05.726Z,2.40
2023-05-02T13:14:09.538Z,1.88
2023-05-02T13:17:13.653Z,3.15
2023-05-02T13:20:17.508Z,2.75
2023-05-02T13:23:21.746Z,2.53
2023-05-02T13:26:25.537Z,2.92
2023-05-02T13:29:29.541Z,2.45
2023-05-02T13:32:32.892Z,2.70
2023-05-02T13:35:37.328Z,3.22
2023-05-02T13:38:40.846Z,2.92
2023-05-02T13:41:45.869Z,2.67
2023-05-02T13:44:51.846Z,2.97
2023-05-02T13:51:00.801Z,2.33
2023-05-02T13:54:05.021Z,2.50
2023-05-02T13:57:08.075Z,2.55
2023-05-02T14:00:12.122Z,4.30
2023-05-02T14:03:18.714Z,2.33
2023-05-02T14:06:22.788Z,2.55
2023-05-02T14:09:26.954Z,2.78
2023-05-02T14:12:30.605Z,2.42
2023-05-02T14:15:34.233Z,2.33
2023-05-02T14:18:38.006Z,1.85
2023-05-02T14:21:42.144Z,2.88
2023-05-02T14:24:45.885Z,2.63
2023-05-02T14:27:49.637Z,2.25
2023-05-02T14:30:53.719Z,1.90
2023-05-02T14:33:57.561Z,2.42
2023-05-02T14:37:01.181Z,2.42
2023-05-02T14:40:05.756Z,2.83
2023-05-02T14:43:10.003Z,2.95
2023-05-02T14:46:14.137Z,2.80
2023-05-02T14:49:18.890Z,2.60
2023-05-02T14:52:22.297Z,3.35
2023-05-02T14:55:26.370Z,3.17
2023-05-02T14:58:29.913Z,3.60
2023-05-02T15:01:34.123Z,3.30
2023-05-02T15:04:37.883Z,2.58
2023-05-02T15:07:42.148Z,3.60
2023-05-02T15:10:45.704Z,3.45
2023-05-02T15:13:49.801Z,2.28
2023-05-02T15:16:53.200Z,3.40
2023-05-02T15:19:58.472Z,2.85
2023-05-02T15:23:04.068Z,3.05
2023-05-02T15:26:08.243Z,2.03
2023-05-02T15:29:12.287Z,2.58
2023-05-02T15:32:16.209Z,3.65
2023-05-02T15:35:19.976Z,2.67
2023-05-02T15:38:23.741Z,3.05
2023-05-02T15:41:28.069Z,3.50
2023-05-02T15:44:35.135Z,3.30
2023-05-02T15:47:38.559Z,4.43
2023-05-02T15:50:43.868Z,2.78
2023-05-02T15:53:50.462Z,2.17
2023-05-02T15:56:54.693Z,2.50
2023-05-02T15:59:58.010Z,3.03
2023-05-02T16:03:03.192Z,2.60
2023-05-02T16:06:08.175Z,3.03
2023-05-02T16:09:13.377Z,2.72
2023-05-02T16:12:17.133Z,3.40
2023-05-02T16:15:22.180Z,3.33
2023-05-02T16:18:28.891Z,3.13
2023-05-02T16:21:32.582Z,2.92
2023-05-02T16:24:36.185Z,3.47
2023-05-02T16:27:39.960Z,3.13
2023-05-02T16:30:43.685Z,3.60
2023-05-02T16:33:47.864Z,4.95
2023-05-02T16:36:52.049Z,4.70
2023-05-02T16:39:55.146Z,5.43
2023-05-02T16:42:58.785Z,5.40
2023-05-02T16:46:04.247Z,5.05
2023-05-02T16:49:08.399Z,4.95
2023-05-02T16:52:12.185Z,5.25
2023-05-02T16:55:17.178Z,5.13
2023-05-02T16:58:20.879Z,4.40
2023-05-02T17:01:27.073Z,5.03
2023-05-02T17:04:30.342Z,4.07
2023-05-02T17:07:33.978Z,4.70
2023-05-02T17:10:37.721Z,4.22
2023-05-02T17:13:41.320Z,4.50
2023-05-02T17:16:45.274Z,3.95
2023-05-02T17:19:49.156Z,3.33
2023-05-02T17:22:53.451Z,4.22
2023-05-02T17:25:57.185Z,3.38
2023-05-02T17:29:00.519Z,3.78
2023-05-02T17:32:03.539Z,4.38
2023-05-02T17:35:07.650Z,3.40
2023-05-02T17:38:10.686Z,3.95
2023-05-02T17:41:15.876Z,3.75
2023-05-02T17:44:19.493Z,3.80
2023-05-02T17:47:23.117Z,4.32
2023-05-02T17:50:26.721Z,4.45
2023-05-02T17:53:29.808Z,5.03
2023-05-02T17:56:35.622Z,4.38
2023-05-02T17:59:40.646Z,4.57
2023-05-02T18:02:44.347Z,4.05
2023-05-02T18:05:48.734Z,4.38
2023-05-02T18:08:52.559Z,2.88
2023-05-02T18:12:01.148Z,4.03
2023-05-02T18:15:06.309Z,3.60
2023-05-02T18:18:10.510Z,3.72
2023-05-02T18:21:22.138Z,2.75
2023-05-02T18:24:26.772Z,4.40
2023-05-02T18:27:30.743Z,4.53
2023-05-02T18:30:38.219Z,4.00
2023-05-02T18:33:42.703Z,4.00
2023-05-02T18:36:46.439Z,3.67
2023-05-02T18:39:49.387Z,3.90
2023-05-02T18:42:52.914Z,4.13
2023-05-02T18:45:55.933Z,4.32
2023-05-02T18:49:00.321Z,4.45
2023-05-02T18:52:03.955Z,4.55
2023-05-02T18:55:07.336Z,5.55
2023-05-02T18:58:10.307Z,5.05
2023-05-02T19:01:15.846Z,4.60
2023-05-02T19:04:20.098Z,3.38
2023-05-02T19:07:24.159Z,3.83
2023-05-02T19:10:27.579Z,3.75
2023-05-02T19:13:32.148Z,3.38
2023-05-02T19:16:38.503Z,3.72
2023-05-02T19:19:43.066Z,3.80
2023-05-02T19:22:57.729Z,5.80
2023-05-02T19:26:11.609Z,4.70
2023-05-02T19:32:17.853Z,3.50
2023-05-02T19:35:21.816Z,4.43
2023-05-02T19:38:25.039Z,2.35
2023-05-02T19:41:28.116Z,2.95
2023-05-02T19:44:31.771Z,2.45
2023-05-02T19:47:35.141Z,3.10
2023-05-02T19:50:38.565Z,2.50
2023-05-02T19:53:42.246Z,3.03
2023-05-02T19:56:47.466Z,2.70
2023-05-02T19:59:51.172Z,2.40
2023-05-02T20:02:54.405Z,2.40
2023-05-02T20:05:58.859Z,2.75
2023-05-02T20:09:01.825Z,2.13
2023-05-02T20:12:04.966Z,2.83
2023-05-02T20:15:08.338Z,3.17
2023-05-02T20:18:11.997Z,2.88
2023-05-02T20:21:15.084Z,1.77
2023-05-02T20:24:18.024Z,2.55
2023-05-02T20:27:21.441Z,2.20
2023-05-02T20:30:24.434Z,2.70
2023-05-02T20:33:37.075Z,2.83
2023-05-02T20:36:47.906Z,2.90
2023-05-02T20:39:51.846Z,2.20
2023-05-02T20:42:55.554Z,3.88
2023-05-02T20:45:59.265Z,1.58
2023-05-02T20:49:03.035Z,3.47
2023-05-02T20:52:07.188Z,3.55
2023-05-02T20:55:10.894Z,1.95
2023-05-02T20:58:14.432Z,3.70
2023-05-02T21:01:18.297Z,3.80
2023-05-02T21:04:22.004Z,2.22
2023-05-02T21:07:25.726Z,2.75
2023-05-02T21:10:31.131Z,3.50
2023-05-02T21:13:34.171Z,3.72
2023-05-02T21:16:38.748Z,3.90
2023-05-02T21:19:42.644Z,3.60
2023-05-02T21:22:46.362Z,3.90
2023-05-02T21:25:49.249Z,3.00
2023-05-02T21:28:53.865Z,3.30
2023-05-02T21:31:57.663Z,2.67
2023-05-02T21:35:01.999Z,3.38
2023-05-02T21:38:05.701Z,3.25
2023-05-02T21:41:09.966Z,3.42
2023-05-02T21:44:14.780Z,3.15
2023-05-02T21:47:17.831Z,3.30
2023-05-02T21:50:21.568Z,3.25
2023-05-02T21:53:28.385Z,3.28
2023-05-02T21:56:31.329Z,2.00
2023-05-02T21:59:35.041Z,2.60
2023-05-02T22:02:38.049Z,2.90
2023-05-02T22:05:42.832Z,3.20
2023-05-02T22:08:45.972Z,2.80
2023-05-02T22:11:50.153Z,2.63
2023-05-02T22:14:53.697Z,2.88
2023-05-02T22:17:58.143Z,3.05
2023-05-02T22:21:02.314Z,3.72
2023-05-02T22:24:06.817Z,3.70
2023-05-02T22:27:10.232Z,3.08
2023-05-02T22:30:14.369Z,2.90
2023-05-02T22:33:17.415Z,2.80
2023-05-02T22:36:21.614Z,3.15
2023-05-02T22:39:25.123Z,2.78
2023-05-02T22:42:29.611Z,2.55
2023-05-02T22:45:32.600Z,3.10
2023-05-02T22:48:36.689Z,2.92
2023-05-02T22:51:42.976Z,4.20
2023-05-02T22:54:45.971Z,2.40
2023-05-02T22:57:48.959Z,2.70
2023-05-02T23:00:52.507Z,2.05
2023-05-02T23:03:56.483Z,2.08
2023-05-02T23:07:00.905Z,1.35
2023-05-02T23:10:05.139Z,2.42
2023-05-02T23:13:09.511Z,1.92
2023-05-02T23:16:12.939Z,1.75
2023-05-02T23:19:18.060Z,2.22
2023-05-02T23:22:21.734Z,2.10
2023-05-02T23:25:28.634Z,1.80
2023-05-02T23:28:32.350Z,1.88
2023-05-02T23:31:36.480Z,1.95
2023-05-02T23:34:39.978Z,2.28
2023-05-02T23:37:45.030Z,1.95
2023-05-02T23:40:48.587Z,1.60
2023-05-02T23:43:52.659Z,2.20
2023-05-02T23:46:56.394Z,1.50
2023-05-02T23:50:00.623Z,1.30
2023-05-02T23:53:03.823Z,1.73
2023-05-02T23:56:08.139Z,1.90
2023-05-02T23:59:12.492Z,1.70
